Jeffersonville, Pennsylvania
Current Conditions -  °F | °C
As of 7:55 PM on Wednesday 22 Oct 2014 (Local Time) from KLOM Reporting Station
Overcast Overcast  
Wind Chill: 12°   Ceiling: 1300
Heat Index: 12°   Visibility: 7mi
Dew Point: 10°   Wind: 6mph
Humidity: 88%   Direction: 330°NNW
Pressure: 29.85"   Gusts: NA
Location:  40.1271°N, 75.3202°W
Report Text: KLOM 222355Z AUTO 33005KT 7SM BKN013 OVC020 12/10 A2985 RMK AO1 P0001
Loading
Personal Weather Stations






























Interactive Weather Map
Tropical Storm Tracking
New forecast layout! Learn more

10-Day Weather Forecast

Advertisements
Track Severe Weather on mobile